Time;durP1;ratioP1;P1;durP2;ratioP2;P2;SDS_P1;SDS_P2;PMS_P1;PMS_P2;Temp;Humidity;BMP_temperature;BMP_pressure;BME280_temperature;BME280_humidity;BME280_pressure;Samples;Min_cycle;Max_cycle;Signal;HPM_P1;HPM_P2
2021/11/09 00:00:10;;;;;;;47.38;23.85;;;3.80;99.90;;;;;;4116135;28;20436;-79
2021/11/09 00:02:12;;;;;;;47.78;19.45;;;3.80;99.90;;;;;;4117114;28;20035;-80
2021/11/09 00:04:12;;;;;;;42.70;19.65;;;3.80;99.90;;;;;;4116732;28;20113;-80
2021/11/09 00:06:21;;;;;;;47.50;19.65;;;3.90;99.90;;;;;;4116298;28;20347;-80
2021/11/09 00:08:29;;;;;;;60.40;20.50;;;3.90;99.90;;;;;;4116599;28;20127;-79
2021/11/09 00:10:30;;;;;;;41.67;18.23;;;3.80;99.90;;;;;;4117146;28;20045;-80
2021/11/09 00:12:34;;;;;;;62.33;21.20;;;3.70;99.90;;;;;;4116746;28;20022;-80
2021/11/09 00:14:34;;;;;;;43.03;21.00;;;3.60;99.90;;;;;;4132080;28;20046;-80
2021/11/09 00:16:35;;;;;;;49.00;19.30;;;3.70;99.90;;;;;;4116066;28;20031;-79
2021/11/09 00:18:37;;;;;;;42.40;19.23;;;3.60;99.90;;;;;;4115791;28;20505;-81
2021/11/09 00:20:39;;;;;;;49.00;20.92;;;3.60;99.90;;;;;;4115343;28;20390;-79
2021/11/09 00:22:41;;;;;;;45.50;20.95;;;3.60;99.90;;;;;;4118122;28;20080;-80
2021/11/09 00:24:41;;;;;;;42.20;19.33;;;3.60;99.90;;;;;;4116740;28;20152;-80
2021/11/09 00:26:42;;;;;;;42.60;18.92;;;3.50;99.90;;;;;;4115888;28;20030;-80
2021/11/09 00:28:43;;;;;;;48.13;19.70;;;3.50;99.90;;;;;;4118160;28;23712;-80
2021/11/09 00:30:44;;;;;;;60.25;23.48;;;3.50;99.90;;;;;;4120133;28;20038;-80
2021/11/09 00:32:45;;;;;;;41.67;19.13;;;3.40;99.90;;;;;;4115865;28;20050;-80
2021/11/09 00:34:46;;;;;;;42.17;20.55;;;3.40;99.90;;;;;;4114873;28;20031;-80
2021/11/09 00:36:47;;;;;;;58.58;23.17;;;3.40;99.90;;;;;;4116674;28;20042;-81
2021/11/09 00:38:47;;;;;;;53.20;23.45;;;3.40;99.90;;;;;;4117394;28;20560;-80
2021/11/09 00:40:49;;;;;;;49.30;19.52;;;3.30;99.90;;;;;;4119908;28;20034;-80
2021/11/09 00:42:50;;;;;;;58.08;22.35;;;3.30;99.90;;;;;;4119665;28;20046;-80
2021/11/09 00:44:50;;;;;;;51.20;22.35;;;3.30;99.90;;;;;;4119879;28;20085;-80
2021/11/09 00:46:52;;;;;;;49.85;22.83;;;3.40;99.90;;;;;;4121257;28;20533;-80
2021/11/09 00:48:53;;;;;;;49.10;21.60;;;3.50;99.90;;;;;;4119864;28;20041;-80
2021/11/09 00:50:54;;;;;;;53.70;21.23;;;3.50;99.90;;;;;;4118203;28;20038;-80
2021/11/09 00:52:55;;;;;;;51.85;20.83;;;3.50;99.90;;;;;;4118328;28;20030;-80
2021/11/09 00:54:56;;;;;;;57.20;21.27;;;3.50;99.90;;;;;;4119234;28;20050;-80
2021/11/09 00:56:57;;;;;;;54.45;22.92;;;3.40;99.90;;;;;;4118145;28;20034;-80
2021/11/09 00:58:57;;;;;;;54.90;21.85;;;3.40;99.90;;;;;;4117993;28;20124;-80
2021/11/09 01:01:01;;;;;;;45.97;20.27;;;3.40;99.90;;;;;;4117228;28;20516;-80
2021/11/09 01:03:04;;;;;;;51.30;23.50;;;3.30;99.90;;;;;;4115716;28;20101;-79
2021/11/09 01:05:05;;;;;;;49.92;21.92;;;3.30;99.90;;;;;;4118445;28;20403;-79
2021/11/09 01:07:06;;;;;;;45.30;19.88;;;3.20;99.90;;;;;;4118595;28;20042;-79
2021/11/09 01:09:07;;;;;;;50.95;19.95;;;3.20;99.90;;;;;;4116315;28;21866;-81
2021/11/09 01:11:17;;;;;;;54.83;22.15;;;3.20;99.90;;;;;;4118673;28;20045;-79
2021/11/09 01:13:20;;;;;;;49.92;22.13;;;3.10;99.90;;;;;;4118510;28;20038;-80
2021/11/09 01:15:21;;;;;;;54.05;20.33;;;3.10;99.90;;;;;;4117071;28;22871;-81
2021/11/09 01:17:22;;;;;;;48.25;19.55;;;3.10;99.90;;;;;;4117511;28;20042;-79
2021/11/09 01:19:23;;;;;;;44.85;19.60;;;3.00;99.90;;;;;;4118296;28;20030;-80
2021/11/09 01:21:24;;;;;;;51.70;20.88;;;3.00;99.90;;;;;;4117067;28;20070;-79
2021/11/09 01:23:26;;;;;;;49.42;22.13;;;2.90;99.90;;;;;;4119009;28;20079;-81
2021/11/09 01:25:28;;;;;;;52.22;21.13;;;2.90;99.90;;;;;;4119569;28;20061;-79
2021/11/09 01:27:30;;;;;;;45.40;20.50;;;2.90;99.90;;;;;;4118256;28;20046;-79
2021/11/09 01:29:31;;;;;;;50.92;20.77;;;3.00;99.90;;;;;;4116155;28;20552;-80
2021/11/09 01:31:34;;;;;;;43.67;20.83;;;3.00;99.90;;;;;;4118426;28;20125;-79
2021/11/09 01:33:36;;;;;;;47.65;21.48;;;2.90;99.90;;;;;;4120381;28;20034;-81
2021/11/09 01:35:38;;;;;;;45.72;19.92;;;2.90;99.90;;;;;;4118421;28;20046;-80
2021/11/09 01:37:39;;;;;;;47.40;22.08;;;2.80;99.90;;;;;;4119626;28;20038;-79
2021/11/09 01:39:39;;;;;;;56.25;23.02;;;2.80;99.90;;;;;;4119151;28;20030;-79
2021/11/09 01:41:40;;;;;;;54.08;22.02;;;2.80;99.90;;;;;;4120689;28;20038;-80
2021/11/09 01:43:41;;;;;;;52.83;22.15;;;2.90;99.90;;;;;;4117858;28;20038;-81
2021/11/09 01:45:44;;;;;;;52.15;22.83;;;2.90;99.90;;;;;;4118511;28;20041;-81
2021/11/09 01:47:47;;;;;;;57.17;21.58;;;2.90;99.90;;;;;;4119326;28;20165;-81
2021/11/09 01:49:48;;;;;;;47.35;22.70;;;2.90;99.90;;;;;;4117077;28;20042;-80
2021/11/09 01:51:50;;;;;;;56.90;24.50;;;2.80;99.90;;;;;;4117256;28;20133;-79
2021/11/09 01:53:53;;;;;;;53.17;24.35;;;2.80;99.90;;;;;;4119352;28;20054;-79
2021/11/09 01:55:58;;;;;;;51.83;23.98;;;2.80;99.90;;;;;;4118535;28;20113;-80
2021/11/09 01:58:00;;;;;;;48.85;22.33;;;2.80;99.90;;;;;;4116895;28;20046;-80
2021/11/09 02:00:04;;;;;;;56.42;23.73;;;2.80;99.90;;;;;;4118723;28;20176;-80
2021/11/09 02:02:05;;;;;;;53.70;23.05;;;2.70;99.90;;;;;;4117481;28;20038;-80
2021/11/09 02:04:07;;;;;;;58.35;23.80;;;2.80;99.90;;;;;;4119465;28;20031;-80
2021/11/09 02:06:09;;;;;;;58.50;23.90;;;2.80;99.90;;;;;;4116851;28;20096;-81
2021/11/09 02:08:10;;;;;;;56.25;23.73;;;2.80;99.90;;;;;;4118728;28;20560;-79
2021/11/09 02:10:12;;;;;;;62.95;25.00;;;2.70;99.90;;;;;;4118488;28;20023;-79
2021/11/09 02:12:12;;;;;;;54.75;24.20;;;2.80;99.90;;;;;;4135391;28;20026;-79
2021/11/09 02:14:15;;;;;;;54.88;24.60;;;2.80;99.90;;;;;;4117745;28;20487;-79
2021/11/09 02:16:18;;;;;;;54.53;24.05;;;2.90;99.90;;;;;;4118078;28;20075;-79
2021/11/09 02:18:20;;;;;;;76.47;26.77;;;2.90;99.90;;;;;;4110277;28;20073;-79
2021/11/09 02:20:23;;;;;;;50.10;24.10;;;2.80;99.90;;;;;;4112860;28;20050;-79
2021/11/09 02:22:26;;;;;;;60.38;25.23;;;2.80;99.90;;;;;;4110602;28;20129;-79
2021/11/09 02:24:27;;;;;;;62.00;26.08;;;2.90;99.90;;;;;;4118083;28;20026;-80
2021/11/09 02:26:29;;;;;;;54.30;25.30;;;2.90;99.90;;;;;;4117567;28;20080;-80
2021/11/09 02:28:32;;;;;;;57.65;28.85;;;3.00;99.90;;;;;;4118208;28;20034;-79
2021/11/09 02:30:33;;;;;;;60.40;26.80;;;3.00;99.90;;;;;;4117098;28;20122;-79
2021/11/09 02:32:34;;;;;;;73.15;27.52;;;3.00;99.90;;;;;;4118212;28;20041;-79
2021/11/09 02:34:36;;;;;;;58.85;28.23;;;3.10;99.90;;;;;;4119106;28;20137;-80
2021/11/09 02:36:37;;;;;;;58.65;27.35;;;3.10;99.90;;;;;;4115331;28;20035;-80
2021/11/09 02:38:38;;;;;;;56.80;25.40;;;3.10;99.90;;;;;;4114647;28;20034;-80
2021/11/09 02:40:39;;;;;;;51.63;22.55;;;3.10;99.90;;;;;;4115841;28;20078;-80
2021/11/09 02:42:48;;;;;;;59.08;25.75;;;3.00;99.90;;;;;;4118441;28;20314;-80
2021/11/09 02:44:59;;;;;;;65.03;27.05;;;3.00;99.90;;;;;;4118191;28;20040;-80
2021/11/09 02:47:04;;;;;;;63.83;26.90;;;3.10;99.90;;;;;;4117440;28;20662;-80
2021/11/09 02:53:12;;;;;;;72.65;28.75;;;3.30;99.90;;;;;;4118827;28;20046;-79
2021/11/09 02:55:13;;;;;;;70.53;27.33;;;3.30;99.90;;;;;;4133682;28;20108;-79
2021/11/09 02:57:36;;;;;;;71.70;28.33;;;3.30;99.90;;;;;;4117800;28;20036;-79
2021/11/09 03:01:55;;;;;;;70.60;27.83;;;3.40;99.90;;;;;;4118185;28;20086;-79
2021/11/09 03:04:10;;;;;;;74.93;28.60;;;3.50;99.90;;;;;;4116623;28;20031;-79
2021/11/09 03:08:31;;;;;;;72.15;27.25;;;3.40;99.90;;;;;;4118469;28;20494;-79
2021/11/09 03:10:39;;;;;;;71.13;29.08;;;3.40;99.90;;;;;;4117815;28;20037;-80
2021/11/09 03:12:40;;;;;;;60.17;27.90;;;3.40;99.90;;;;;;4117952;28;20501;-80
2021/11/09 03:14:42;;;;;;;65.15;25.73;;;3.40;99.90;;;;;;4118387;28;20149;-80
2021/11/09 03:16:44;;;;;;;63.88;27.40;;;3.30;99.90;;;;;;4116445;28;20043;-80
2021/11/09 03:18:50;;;;;;;55.97;25.95;;;3.20;99.90;;;;;;4120084;28;20073;-81
2021/11/09 03:40:00;;;;;;;60.80;26.40;;;3.10;99.90;;;;;;4117124;28;20037;-81
2021/11/09 03:44:26;;;;;;;61.40;23.92;;;2.80;99.90;;;;;;4115417;28;20041;-79
2021/11/09 03:46:30;;;;;;;57.30;24.98;;;2.80;99.90;;;;;;4116032;28;20121;-81
2021/11/09 03:48:31;;;;;;;53.78;23.95;;;2.70;99.90;;;;;;4114727;28;20077;-80
2021/11/09 03:50:34;;;;;;;62.47;25.23;;;2.70;99.90;;;;;;4115764;28;20033;-80
2021/11/09 03:52:45;;;;;;;60.28;24.27;;;2.60;99.90;;;;;;4115350;28;20505;-80
2021/11/09 03:54:56;;;;;;;60.22;25.30;;;2.60;99.90;;;;;;4117170;28;20161;-80
2021/11/09 03:57:23;;;;;;;58.08;25.45;;;2.60;99.90;;;;;;4116014;28;20122;-79
2021/11/09 04:00:13;;;;;;;55.13;23.58;;;2.60;99.90;;;;;;4115364;28;20038;-79
2021/11/09 04:02:01;;;;;;;67.20;25.33;;;2.70;99.90;;;;;;4110487;28;20038;-80
2021/11/09 04:04:20;;;;;;;64.75;25.58;;;2.80;99.90;;;;;;4115628;28;20038;-80
2021/11/09 04:13:17;;;;;;;66.93;25.08;;;2.80;99.90;;;;;;4118200;28;20034;-80
2021/11/09 04:19:26;;;;;;;59.47;24.70;;;2.80;99.90;;;;;;4121689;28;20046;-81
2021/11/09 04:28:41;;;;;;;61.60;25.30;;;2.80;99.90;;;;;;4122154;28;20061;-80
2021/11/09 04:31:12;;;;;;;60.92;24.10;;;2.80;99.90;;;;;;4120327;28;20030;-82
2021/11/09 04:34:00;;;;;;;54.38;24.63;;;2.70;99.90;;;;;;4133837;28;20546;-81
2021/11/09 05:10:06;;;;;;;73.22;26.05;;;3.00;99.90;;;;;;4102952;28;20540;-82
2021/11/09 05:12:08;;;;;;;72.82;26.42;;;3.00;99.90;;;;;;4108187;28;20042;-81
2021/11/09 05:14:11;;;;;;;69.97;27.08;;;3.00;99.90;;;;;;4092263;28;20322;-81
2021/11/09 05:16:11;;;;;;;;;;;3.00;99.90;;;;;;4119822;28;20042;-81
2021/11/09 05:18:12;;;;;;;72.85;25.67;;;3.10;99.90;;;;;;4121690;28;20287;-80
2021/11/09 05:20:13;;;;;;;59.53;24.98;;;3.10;99.90;;;;;;4122700;28;20494;-80
2021/11/09 05:22:13;;;;;;;79.35;27.02;;;3.10;99.90;;;;;;4122252;28;20030;-79
2021/11/09 05:24:14;;;;;;;71.03;28.75;;;3.10;99.90;;;;;;4119702;28;20042;-79
2021/11/09 05:26:15;;;;;;;67.28;27.85;;;3.20;99.90;;;;;;4119553;28;20034;-78
2021/11/09 05:28:17;;;;;;;66.35;28.08;;;3.20;99.90;;;;;;4118080;28;20042;-79
2021/11/09 05:30:24;;;;;;;70.63;27.85;;;3.20;99.90;;;;;;4118524;28;20035;-80
2021/11/09 05:32:25;;;;;;;72.22;29.25;;;3.20;99.90;;;;;;4119314;28;20500;-80
2021/11/09 05:34:29;;;;;;;61.13;28.70;;;3.30;99.90;;;;;;4118737;28;20034;-81
2021/11/09 05:36:35;;;;;;;87.53;28.83;;;3.30;99.90;;;;;;4119038;28;20504;-81
2021/11/09 05:38:53;;;;;;;74.55;28.63;;;3.30;99.90;;;;;;4118239;28;20038;-80
2021/11/09 05:40:58;;;;;;;84.68;30.17;;;3.30;99.90;;;;;;4118605;28;20121;-81
2021/11/09 05:43:00;;;;;;;72.13;29.58;;;3.40;99.90;;;;;;4119521;28;20050;-80
2021/11/09 05:45:01;;;;;;;75.13;29.15;;;3.30;99.90;;;;;;4119137;28;20089;-80
2021/11/09 05:47:02;;;;;;;84.25;32.10;;;3.20;99.90;;;;;;4118062;28;20030;-80
2021/11/09 05:49:04;;;;;;;66.45;30.98;;;3.20;99.90;;;;;;4118887;28;20478;-81
2021/11/09 05:51:07;;;;;;;78.80;30.15;;;3.10;99.90;;;;;;4116580;28;20023;-80
2021/11/09 05:53:07;;;;;;;76.30;29.88;;;3.10;99.90;;;;;;4117473;28;20046;-80
2021/11/09 05:55:09;;;;;;;74.22;29.55;;;3.00;99.90;;;;;;4118406;28;20034;-79
2021/11/09 05:57:10;;;;;;;70.72;31.63;;;3.00;99.90;;;;;;4118871;28;20617;-81
2021/11/09 05:59:11;;;;;;;76.22;30.77;;;3.00;99.90;;;;;;4118864;28;20960;-80
2021/11/09 06:01:11;;;;;;;84.68;30.75;;;3.00;99.90;;;;;;4118574;28;20047;-80
2021/11/09 06:03:14;;;;;;;67.20;28.83;;;2.90;99.90;;;;;;4119240;28;20034;-79
2021/11/09 06:05:15;;;;;;;65.80;30.42;;;2.90;99.90;;;;;;4117265;28;20376;-79
2021/11/09 06:07:16;;;;;;;73.97;29.80;;;2.90;99.90;;;;;;4117859;28;20049;-80
2021/11/09 06:09:17;;;;;;;71.75;29.38;;;2.80;99.90;;;;;;4119836;28;22251;-79
2021/11/09 06:11:18;;;;;;;83.38;30.38;;;2.80;99.90;;;;;;4117757;28;20124;-80
2021/11/09 06:13:19;;;;;;;73.38;30.55;;;2.70;99.90;;;;;;4118742;28;20022;-80
2021/11/09 06:15:19;;;;;;;75.38;31.55;;;2.70;99.90;;;;;;4119514;28;20520;-79
2021/11/09 06:17:20;;;;;;;87.25;31.65;;;2.60;99.90;;;;;;4119405;28;20049;-79
2021/11/09 06:19:21;;;;;;;81.45;30.77;;;2.60;99.90;;;;;;4117436;28;20050;-79
2021/11/09 06:21:21;;;;;;;86.55;32.30;;;2.50;99.90;;;;;;4107743;28;20043;-79
2021/11/09 06:23:22;;;;;;;75.07;31.80;;;2.70;99.90;;;;;;4114502;28;20069;-79
2021/11/09 06:25:24;;;;;;;80.25;29.73;;;2.70;99.90;;;;;;4118929;28;20765;-79
2021/11/09 06:27:24;;;;;;;77.60;31.17;;;2.70;99.90;;;;;;4117712;28;20046;-79
2021/11/09 06:29:25;;;;;;;82.38;30.50;;;2.70;99.90;;;;;;4116187;28;20093;-79
2021/11/09 06:31:30;;;;;;;77.13;31.42;;;2.80;99.90;;;;;;4114616;28;20362;-79
2021/11/09 06:33:32;;;;;;;87.05;32.85;;;2.80;99.90;;;;;;4115224;28;20030;-79
2021/11/09 06:35:33;;;;;;;88.35;32.70;;;2.80;99.90;;;;;;4117296;28;20038;-79
2021/11/09 06:37:36;;;;;;;77.68;32.85;;;2.80;99.90;;;;;;4117592;28;20038;-80
2021/11/09 06:39:36;;;;;;;90.97;34.28;;;2.80;99.90;;;;;;4115066;28;20034;-79
2021/11/09 06:41:37;;;;;;;89.97;32.85;;;2.80;99.90;;;;;;4116061;28;20038;-80
2021/11/09 06:43:38;;;;;;;81.70;34.63;;;2.80;99.90;;;;;;4138379;28;20072;-80
2021/11/09 06:45:39;;;;;;;91.75;33.00;;;2.80;99.90;;;;;;4116975;28;20044;-79
2021/11/09 06:47:41;;;;;;;88.97;34.00;;;2.80;99.90;;;;;;4116356;28;20038;-79
2021/11/09 06:49:41;;;;;;;84.30;32.60;;;2.90;99.90;;;;;;4116393;28;20057;-80
2021/11/09 06:51:42;;;;;;;85.95;32.92;;;2.80;99.90;;;;;;4116807;28;20034;-80
2021/11/09 06:53:43;;;;;;;81.55;34.83;;;2.80;99.90;;;;;;4114456;28;20045;-80
2021/11/09 06:55:44;;;;;;;89.20;33.63;;;2.80;99.90;;;;;;4117105;28;20043;-79
2021/11/09 06:57:45;;;;;;;93.90;32.65;;;2.80;99.90;;;;;;4117946;28;20506;-79
2021/11/09 06:59:47;;;;;;;81.90;33.38;;;2.80;99.90;;;;;;4117986;28;20470;-79
2021/11/09 07:01:49;;;;;;;85.00;33.28;;;2.80;99.90;;;;;;4115673;28;20129;-79
2021/11/09 07:03:49;;;;;;;77.40;33.15;;;2.80;99.90;;;;;;4117115;28;20038;-79
2021/11/09 07:05:50;;;;;;;92.85;34.33;;;2.80;99.90;;;;;;4117666;28;20049;-79
2021/11/09 07:07:51;;;;;;;88.55;33.00;;;2.80;99.90;;;;;;4118450;28;20038;-79
2021/11/09 07:09:52;;;;;;;90.35;33.80;;;2.80;99.90;;;;;;4115518;28;20070;-80
2021/11/09 07:11:53;;;;;;;76.38;33.35;;;2.80;99.90;;;;;;4118451;28;20042;-80
2021/11/09 07:13:55;;;;;;;81.28;33.13;;;2.90;99.90;;;;;;4116308;28;20117;-80
2021/11/09 07:15:56;;;;;;;81.55;35.95;;;3.00;99.90;;;;;;4118338;28;20060;-80
2021/11/09 07:17:57;;;;;;;97.35;34.28;;;3.00;99.90;;;;;;4116467;28;20372;-80
2021/11/09 07:19:59;;;;;;;83.72;31.75;;;3.10;99.90;;;;;;4118664;28;20037;-80
2021/11/09 07:21:59;;;;;;;90.47;33.67;;;3.20;99.90;;;;;;4117565;28;20068;-80
2021/11/09 07:24:00;;;;;;;83.82;33.58;;;3.30;99.90;;;;;;4115384;28;20039;-80
2021/11/09 07:26:01;;;;;;;94.45;33.83;;;3.40;99.90;;;;;;4115429;28;20101;-81
2021/11/09 07:28:02;;;;;;;77.55;33.42;;;3.50;99.90;;;;;;4116522;28;20062;-80
2021/11/09 07:30:04;;;;;;;80.38;34.13;;;3.50;99.90;;;;;;4118419;28;20042;-79
2021/11/09 07:32:16;;;;;;;86.18;35.30;;;3.50;99.90;;;;;;4115952;28;20042;-78
2021/11/09 07:34:18;;;;;;;88.82;34.63;;;3.60;99.90;;;;;;4117110;28;20394;-80
2021/11/09 07:36:20;;;;;;;88.82;36.22;;;3.70;99.90;;;;;;4116220;28;20026;-81
2021/11/09 07:38:20;;;;;;;93.72;35.22;;;3.70;99.90;;;;;;4117641;28;20046;-80
2021/11/09 07:40:23;;;;;;;92.45;34.25;;;3.70;99.90;;;;;;4117570;28;20428;-79
2021/11/09 07:42:24;;;;;;;77.38;35.00;;;3.80;99.90;;;;;;4117133;28;20466;-79
2021/11/09 07:44:24;;;;;;;80.15;35.47;;;3.80;99.90;;;;;;4117269;28;20038;-79
2021/11/09 07:46:28;;;;;;;102.25;35.35;;;3.80;99.90;;;;;;4119035;28;20089;-80
2021/11/09 07:48:28;;;;;;;95.57;39.58;;;3.80;99.90;;;;;;4116010;28;20046;-80
2021/11/09 07:50:30;;;;;;;89.18;36.88;;;3.80;99.90;;;;;;4118887;28;20386;-81
2021/11/09 07:52:31;;;;;;;79.18;33.75;;;3.80;99.90;;;;;;4116630;28;20105;-79
2021/11/09 07:54:34;;;;;;;79.75;36.38;;;3.90;99.90;;;;;;4116784;28;20196;-79
2021/11/09 07:56:37;;;;;;;94.15;35.08;;;3.90;99.90;;;;;;4116450;28;20153;-80
2021/11/09 08:01:07;;;;;;;86.57;34.17;;;4.00;99.90;;;;;;4116553;28;20129;-79
2021/11/09 08:03:17;;;;;;;91.25;33.47;;;4.20;99.90;;;;;;4116615;28;20034;-80
2021/11/09 08:05:18;;;;;;;80.68;33.78;;;4.20;99.90;;;;;;4116499;28;20034;-80
2021/11/09 08:07:23;;;;;;;76.78;32.38;;;4.20;99.90;;;;;;4115375;28;20765;-80
2021/11/09 08:11:24;;;;;;;72.70;32.20;;;4.40;99.90;;;;;;4117413;28;21019;-79
2021/11/09 08:13:26;;;;;;;96.63;34.33;;;4.50;99.90;;;;;;4116991;28;20085;-80
2021/11/09 08:15:27;;;;;;;74.90;34.80;;;4.70;99.90;;;;;;4116043;28;20077;-80
2021/11/09 08:17:27;;;;;;;76.70;35.08;;;4.80;99.90;;;;;;4116917;28;20042;-80
2021/11/09 08:19:28;;;;;;;91.22;35.30;;;4.80;99.90;;;;;;4127393;28;20048;-80
2021/11/09 08:21:29;;;;;;;83.88;33.95;;;4.90;99.90;;;;;;4116297;28;20511;-80
2021/11/09 08:23:31;;;;;;;91.00;36.85;;;5.00;99.90;;;;;;4115644;28;20120;-79
2021/11/09 08:25:31;;;;;;;88.97;33.97;;;5.10;99.90;;;;;;4116358;28;20462;-80
2021/11/09 08:27:32;;;;;;;93.55;34.15;;;5.20;99.90;;;;;;4116827;28;20101;-80
2021/11/09 08:29:33;;;;;;;91.55;33.88;;;5.30;99.90;;;;;;4117626;28;20387;-79
2021/11/09 08:31:36;;;;;;;99.18;35.22;;;5.40;99.90;;;;;;4112244;28;20047;-80
2021/11/09 08:33:37;;;;;;;84.93;33.05;;;5.50;99.90;;;;;;4115386;28;20038;-79
2021/11/09 08:35:37;;;;;;;86.45;33.67;;;5.60;99.90;;;;;;4099451;28;20033;-80
2021/11/09 08:37:39;;;;;;;73.70;31.60;;;5.60;99.90;;;;;;4132426;28;20036;-80
2021/11/09 08:39:42;;;;;;;84.22;32.15;;;5.70;99.90;;;;;;4115658;28;20512;-80
2021/11/09 08:41:49;;;;;;;85.50;31.40;;;5.80;99.90;;;;;;4116424;28;20042;-80
2021/11/09 08:44:25;;;;;;;80.53;32.60;;;5.80;99.90;;;;;;4116859;28;20520;-80
2021/11/09 08:46:19;;;;;;;81.13;33.28;;;5.90;99.90;;;;;;4115010;28;20035;-80
2021/11/09 08:48:22;;;;;;;;;;;6.00;99.90;;;;;;4118535;28;20109;-80
2021/11/09 08:50:25;;;;;;;76.18;27.95;;;6.10;99.90;;;;;;4114959;28;20003;-80
2021/11/09 08:52:34;;;;;;;67.50;26.75;;;6.20;99.90;;;;;;4119009;28;20118;-80
2021/11/09 08:54:35;;;;;;;69.75;31.48;;;6.30;99.90;;;;;;4116278;28;20694;-80
2021/11/09 09:01:32;;;;;;;74.60;28.05;;;6.50;99.90;;;;;;4119304;28;20033;-79
2021/11/09 09:05:52;;;;;;;50.75;23.83;;;6.70;99.90;;;;;;4119209;28;20100;-79
2021/11/09 09:07:54;;;;;;;63.55;28.35;;;6.70;99.90;;;;;;4117709;28;20023;-80
2021/11/09 09:09:56;;;;;;;75.50;27.95;;;6.80;99.90;;;;;;4118537;28;20050;-80
2021/11/09 09:11:58;;;;;;;65.43;29.83;;;6.90;99.90;;;;;;4117235;28;20095;-79
2021/11/09 09:14:00;;;;;;;61.95;26.75;;;7.00;99.90;;;;;;4117908;28;20046;-79
2021/11/09 09:16:01;;;;;;;59.20;24.77;;;7.10;99.90;;;;;;4119686;28;20042;-79
2021/11/09 09:18:03;;;;;;;60.25;27.23;;;7.20;99.90;;;;;;4117115;28;20145;-79
2021/11/09 09:20:29;;;;;;;71.53;28.90;;;7.20;99.90;;;;;;4118595;28;20522;-80
2021/11/09 09:22:39;;;;;;;62.22;26.55;;;7.30;99.90;;;;;;4118033;28;20053;-80
2021/11/09 09:24:53;;;;;;;66.38;26.63;;;7.40;99.90;;;;;;4116660;28;20096;-78
2021/11/09 09:27:09;;;;;;;47.47;24.20;;;7.40;99.90;;;;;;4117641;28;20046;-78
2021/11/09 09:54:30;;;;;;;50.70;25.65;;;8.50;99.90;;;;;;4117414;28;20541;-79
2021/11/09 09:56:41;;;;;;;66.97;27.00;;;8.80;99.90;;;;;;4115913;28;20126;-80
2021/11/09 09:58:42;;;;;;;53.80;26.58;;;9.50;99.90;;;;;;4116876;28;20113;-79
2021/11/09 10:00:43;;;;;;;57.08;27.33;;;10.20;99.90;;;;;;4117413;28;20073;-78
2021/11/09 10:02:52;;;;;;;62.20;25.55;;;10.50;99.90;;;;;;4119292;28;20038;-79
2021/11/09 10:05:08;;;;;;;47.20;22.83;;;10.70;99.90;;;;;;4118343;28;20501;-79
2021/11/09 10:07:10;;;;;;;58.83;26.90;;;10.80;99.90;;;;;;4116174;28;20141;-78
2021/11/09 10:09:45;;;;;;;58.88;24.70;;;11.00;99.90;;;;;;4117129;28;20184;-80
2021/11/09 10:11:46;;;;;;;49.83;21.80;;;11.10;99.90;;;;;;4117820;28;20085;-79
2021/11/09 10:13:47;;;;;;;45.50;20.33;;;11.20;99.90;;;;;;4118387;28;20027;-79
2021/11/09 10:15:54;;;;;;;42.92;21.33;;;11.30;99.90;;;;;;4118094;28;20081;-79
2021/11/09 10:18:03;;;;;;;46.42;22.55;;;11.60;99.90;;;;;;4118195;28;20035;-80
2021/11/09 10:20:13;;;;;;;35.80;16.98;;;11.70;99.90;;;;;;4115782;28;20031;-80
2021/11/09 10:22:32;;;;;;;42.05;20.20;;;11.80;99.90;;;;;;4131172;28;20505;-77
2021/11/09 10:24:33;;;;;;;47.42;21.08;;;11.80;99.90;;;;;;4120246;28;20050;-79
2021/11/09 10:26:35;;;;;;;41.60;18.63;;;11.90;99.90;;;;;;4114475;28;20479;-78
2021/11/09 10:28:36;;;;;;;41.08;19.95;;;12.00;99.90;;;;;;4116924;28;20124;-80
2021/11/09 10:30:44;;;;;;;45.25;17.70;;;12.10;99.90;;;;;;4113992;28;20034;-80
2021/11/09 10:32:46;;;;;;;35.10;17.98;;;12.20;99.90;;;;;;4113150;28;20114;-80
2021/11/09 10:34:47;;;;;;;34.30;17.50;;;12.30;99.90;;;;;;4113234;28;20054;-79
2021/11/09 10:37:15;;;;;;;38.40;19.52;;;12.50;99.90;;;;;;4115472;28;20459;-79
2021/11/09 10:39:20;;;;;;;44.50;19.25;;;12.70;99.90;;;;;;4116447;28;20402;-80
2021/11/09 10:41:20;;;;;;;41.28;18.92;;;13.10;99.90;;;;;;4130286;28;20046;-79
2021/11/09 10:43:22;;;;;;;47.10;20.40;;;13.00;99.90;;;;;;4113901;28;20030;-79
2021/11/09 10:45:26;;;;;;;41.47;20.08;;;12.40;99.90;;;;;;4115096;28;20395;-79
2021/11/09 10:47:31;;;;;;;;;;;12.10;99.90;;;;;;4117670;28;20110;-79
2021/11/09 10:49:56;;;;;;;42.40;19.92;;;12.00;99.90;;;;;;4117458;28;20060;-77
2021/11/09 10:51:58;;;;;;;43.95;21.67;;;11.90;99.90;;;;;;4115914;28;20046;-79
2021/11/09 10:54:05;;;;;;;41.38;21.60;;;11.80;99.90;;;;;;4115907;28;20062;-79
2021/11/09 11:05:17;;;;;;;45.40;20.90;;;12.40;99.90;;;;;;4115038;28;20046;-78
2021/11/09 11:07:18;;;;;;;46.90;21.70;;;12.40;99.90;;;;;;4116065;28;20405;-79
2021/11/09 11:09:21;;;;;;;40.47;20.20;;;12.20;99.90;;;;;;4115363;28;20134;-78
2021/11/09 11:11:31;;;;;;;43.33;22.42;;;12.10;99.90;;;;;;4116548;28;20088;-78
2021/11/09 11:13:32;;;;;;;40.90;22.15;;;12.10;99.90;;;;;;4114680;28;20105;-79
2021/11/09 11:15:32;;;;;;;55.10;24.98;;;12.20;99.90;;;;;;4115818;28;20039;-79
2021/11/09 11:17:37;;;;;;;47.33;24.08;;;12.30;99.90;;;;;;4115700;28;20042;-78
2021/11/09 11:19:43;;;;;;;54.13;24.70;;;12.20;99.90;;;;;;4116913;28;20026;-79
2021/11/09 11:21:44;;;;;;;44.72;24.95;;;12.20;99.90;;;;;;4115889;28;20038;-80
2021/11/09 11:23:45;;;;;;;51.25;26.20;;;12.20;99.90;;;;;;4128258;28;20030;-78
2021/11/09 11:25:46;;;;;;;45.00;23.65;;;12.20;99.90;;;;;;4132437;28;20076;-79
2021/11/09 11:27:47;;;;;;;46.90;25.65;;;12.20;99.90;;;;;;4128998;28;20121;-79
2021/11/09 11:29:49;;;;;;;47.90;25.65;;;12.10;99.90;;;;;;4127644;28;20847;-78
2021/11/09 11:31:52;;;;;;;44.53;22.67;;;12.10;99.90;;;;;;4128498;28;20030;-79
2021/11/09 11:33:52;;;;;;;41.03;21.00;;;12.20;99.90;;;;;;4125710;28;20034;-79
2021/11/09 11:35:53;;;;;;;43.63;20.60;;;12.20;99.90;;;;;;4117766;28;20439;-78
2021/11/09 11:37:55;;;;;;;35.15;19.90;;;12.00;99.90;;;;;;4125478;28;20049;-78
2021/11/09 11:40:02;;;;;;;39.38;19.35;;;11.90;99.90;;;;;;4128851;28;20056;-79
2021/11/09 11:42:08;;;;;;;35.22;19.00;;;11.90;99.90;;;;;;4126722;28;20030;-77
2021/11/09 11:44:10;;;;;;;43.45;19.92;;;12.10;99.90;;;;;;4126050;28;20129;-77
2021/11/09 11:46:36;;;;;;;37.63;17.95;;;12.30;99.90;;;;;;4127086;28;20026;-78
2021/11/09 11:48:56;;;;;;;29.98;15.57;;;12.50;99.90;;;;;;4120508;28;20552;-79
2021/11/09 11:51:13;;;;;;;28.67;16.33;;;12.80;99.90;;;;;;4128941;28;20130;-78
2021/11/09 11:53:34;;;;;;;29.08;15.23;;;12.80;99.90;;;;;;4139577;28;20104;-77
2021/11/09 11:55:36;;;;;;;36.10;16.52;;;12.80;99.90;;;;;;4128305;28;20030;-78
2021/11/09 11:57:54;;;;;;;31.30;14.40;;;12.80;99.90;;;;;;4130341;28;20023;-77
2021/11/09 11:59:56;;;;;;;26.48;13.13;;;12.90;99.90;;;;;;4120694;28;20053;-78
2021/11/09 12:01:58;;;;;;;43.35;16.58;;;13.00;99.90;;;;;;4130336;28;20067;-79
2021/11/09 12:03:59;;;;;;;25.05;14.57;;;13.20;99.90;;;;;;4119809;28;20121;-79
2021/11/09 12:06:02;;;;;;;30.73;13.90;;;13.30;99.90;;;;;;4127044;28;20053;-78
2021/11/09 12:08:04;;;;;;;33.80;14.20;;;13.20;99.90;;;;;;4129543;28;20034;-77
2021/11/09 12:10:08;;;;;;;37.97;14.32;;;13.00;99.90;;;;;;4128061;28;20053;-78
2021/11/09 12:12:11;;;;;;;32.92;15.20;;;13.10;99.90;;;;;;4128087;28;20037;-78
2021/11/09 12:14:14;;;;;;;26.77;13.50;;;13.20;99.90;;;;;;4128368;28;20042;-79
2021/11/09 12:16:46;;;;;;;28.38;13.50;;;13.40;99.90;;;;;;4129301;28;20130;-78
2021/11/09 12:18:47;;;;;;;33.08;12.63;;;13.60;99.90;;;;;;4113820;28;20427;-77
2021/11/09 12:20:48;;;;;;;25.50;12.38;;;13.50;99.90;;;;;;4129698;28;20026;-77
2021/11/09 12:22:53;;;;;;;25.00;12.65;;;13.40;99.90;;;;;;4128416;28;20104;-77
2021/11/09 12:24:59;;;;;;;24.48;12.15;;;13.30;99.90;;;;;;4129523;28;20026;-78
2021/11/09 12:27:00;;;;;;;29.13;13.93;;;13.30;99.90;;;;;;4128166;28;20529;-78
2021/11/09 12:29:01;;;;;;;26.15;12.25;;;13.20;99.90;;;;;;4128841;28;20031;-78
2021/11/09 12:31:13;;;;;;;36.53;15.60;;;13.30;99.90;;;;;;4129505;28;20100;-78
2021/11/09 12:33:23;;;;;;;25.30;11.38;;;13.20;99.90;;;;;;4125079;28;20054;-78
2021/11/09 12:35:25;;;;;;;28.55;13.60;;;12.90;99.90;;;;;;4130293;28;20553;-78
2021/11/09 12:37:25;;;;;;;23.10;12.98;;;12.80;99.90;;;;;;4132239;28;20046;-78
2021/11/09 12:39:26;;;;;;;24.45;13.23;;;12.70;99.90;;;;;;4131532;28;20038;-78
2021/11/09 12:41:31;;;;;;;27.90;12.48;;;12.70;99.90;;;;;;4136216;28;20033;-78
2021/11/09 12:43:32;;;;;;;24.88;12.52;;;12.80;99.90;;;;;;4131269;28;20038;-78